Hollister, Wisconsin
Current Conditions -  °F | °C
As of 10:55 PM on Saturday 25 Oct 2014 (Local Time) from KAIG Reporting Station
Clear Clear  
Wind Chill: 38°   Ceiling: Unl
Heat Index: 43°   Visibility: 10mi
Dew Point: 26°   Wind: 9mph
Humidity: 50%   Direction: 290°WNW
Pressure: 29.94"   Gusts: NA
Location:  45.261°N, 88.731°W
Report Text: KAIG 260355Z AUTO 29008KT 10SM CLR 06/M03 A2994 RMK AO2 T00621035 401500062
Loading
Personal Weather Stations






























Interactive Weather Map New forecast layout! Learn more

10-Day Weather Forecast

Advertisements
Track Severe Weather on mobile